createdAt,value
2023-01-12T00:02:28.644Z,96538.59
2023-01-12T00:04:57.936Z,96527.45
2023-01-12T00:07:27.183Z,96535.06
2023-01-12T00:09:56.420Z,96532.90
2023-01-12T00:12:25.597Z,96533.70
2023-01-12T00:14:55.170Z,96531.53
2023-01-12T00:17:24.438Z,96528.26
2023-01-12T00:19:55.235Z,96525.28
2023-01-12T00:22:24.458Z,96528.00
2023-01-12T00:24:53.635Z,96537.53
2023-01-12T00:27:22.860Z,96550.86
2023-01-12T00:32:46.767Z,96580.56
2023-01-12T00:35:18.298Z,96565.33
2023-01-12T00:37:47.573Z,96581.38
2023-01-12T00:40:17.563Z,96574.56
2023-01-12T00:43:05.042Z,96577.58
2023-01-12T00:45:34.517Z,96575.66
2023-01-12T00:48:03.978Z,96573.49
2023-01-12T00:50:33.315Z,96580.02
2023-01-12T00:53:02.762Z,96586.30
2023-01-12T00:55:32.115Z,96586.01
2023-01-12T00:58:01.404Z,96586.82
2023-01-12T01:00:30.641Z,96592.27
2023-01-12T01:03:01.449Z,96599.07
2023-01-12T01:05:33.261Z,96597.71
2023-01-12T01:08:02.519Z,96602.34
2023-01-12T01:10:31.790Z,96609.16
2023-01-12T01:13:01.045Z,96605.62
2023-01-12T01:15:30.433Z,96611.88
2023-01-12T01:17:59.788Z,96615.97
2023-01-12T01:20:29.187Z,96612.17
2023-01-12T01:23:03.106Z,96621.16
2023-01-12T01:25:32.520Z,96620.05
2023-01-12T01:28:01.730Z,96623.33
2023-01-12T01:30:31.297Z,96620.61
2023-01-12T01:33:00.648Z,96622.52
2023-01-12T01:35:29.908Z,96625.50
2023-01-12T01:37:59.233Z,96624.69
2023-01-12T01:40:28.596Z,96630.69
2023-01-12T01:42:57.929Z,96634.77
2023-01-12T01:45:27.232Z,96626.31
2023-01-12T01:50:49.354Z,96635.03
2023-01-12T01:53:19.958Z,96635.03
2023-01-12T01:55:50.816Z,96638.86
2023-01-12T01:58:22.034Z,96631.50
2023-01-12T02:00:51.411Z,96617.63
2023-01-12T02:03:20.795Z,96618.98
2023-01-12T02:05:50.609Z,96620.35
2023-01-12T02:08:30.325Z,96619.25
2023-01-12T02:11:01.230Z,96617.63
2023-01-12T02:13:50.325Z,96620.61
2023-01-12T02:16:26.794Z,96624.44
2023-01-12T02:19:06.481Z,96630.69
2023-01-12T02:21:37.023Z,96625.25
2023-01-12T02:24:13.608Z,96640.22
2023-01-12T02:26:59.989Z,96639.97
2023-01-12T02:29:30.486Z,96642.39
2023-01-12T02:32:01.065Z,96642.39
2023-01-12T02:34:34.474Z,96638.86
2023-01-12T02:37:08.016Z,96631.50
2023-01-12T02:39:41.555Z,96624.70
2023-01-12T02:42:38.877Z,96638.31
2023-01-12T02:45:15.387Z,96630.70
2023-01-12T02:47:55.395Z,96626.06
2023-01-12T02:50:29.101Z,96622.79
2023-01-12T02:52:59.715Z,96620.36
2023-01-12T02:55:29.056Z,96618.70
2023-01-12T02:57:58.358Z,96610.53
2023-01-12T03:00:28.952Z,96631.25
2023-01-12T03:02:58.315Z,96621.72
2023-01-12T03:05:27.836Z,96631.25
2023-01-12T03:07:58.238Z,96639.97
2023-01-12T03:10:32.537Z,96639.67
2023-01-12T03:13:01.718Z,96658.19
2023-01-12T03:15:32.583Z,96675.62
2023-01-12T03:18:07.915Z,96681.06
2023-01-12T03:20:37.305Z,96681.06
2023-01-12T03:23:11.030Z,96683.78
2023-01-12T03:25:43.358Z,96698.77
2023-01-12T03:28:12.719Z,96687.61
2023-01-12T03:30:52.559Z,96686.25
2023-01-12T03:33:21.848Z,96681.61
2023-01-12T03:36:01.128Z,96690.04
2023-01-12T03:38:47.910Z,96701.77
2023-01-12T03:41:27.619Z,96701.48
2023-01-12T03:43:57.496Z,96709.65
2023-01-12T03:46:40.214Z,96708.84
2023-01-12T03:49:18.742Z,96712.92
2023-01-12T03:51:48.430Z,96720.54
2023-01-12T03:54:17.653Z,96731.17
2023-01-12T03:56:47.335Z,96731.17
2023-01-12T03:59:17.979Z,96739.59
2023-01-12T04:01:48.787Z,96736.61
2023-01-12T04:04:17.983Z,96748.86
2023-01-12T04:06:47.524Z,96764.39
2023-01-12T04:09:17.459Z,96767.37
2023-01-12T04:12:05.097Z,96767.63
2023-01-12T04:14:34.391Z,96767.63
2023-01-12T04:17:03.893Z,96779.62
2023-01-12T04:19:33.236Z,96776.63
2023-01-12T04:22:20.061Z,96774.72
2023-01-12T04:24:49.611Z,96777.16
2023-01-12T04:27:18.813Z,96779.88
2023-01-12T04:29:48.167Z,96788.59
2023-01-12T04:32:19.206Z,96790.77
2023-01-12T04:34:48.476Z,96799.22
2023-01-12T04:37:17.858Z,96802.49
2023-01-12T04:39:47.590Z,96809.30
2023-01-12T04:42:35.305Z,96821.25
2023-01-12T04:45:04.730Z,96821.55
2023-01-12T04:47:35.103Z,96821.80
2023-01-12T04:50:04.355Z,96820.98
2023-01-12T04:52:33.649Z,96829.16
2023-01-12T04:55:02.935Z,96838.69
2023-01-12T04:57:32.235Z,96842.50
2023-01-12T05:00:01.523Z,96844.38
2023-01-12T05:02:30.798Z,96843.87
2023-01-12T05:05:00.128Z,96845.75
2023-01-12T05:07:29.493Z,96853.10
2023-01-12T05:10:16.368Z,96856.38
2023-01-12T05:12:45.892Z,96843.56
2023-01-12T05:15:16.121Z,96858.83
2023-01-12T05:17:46.011Z,96863.98
2023-01-12T05:20:16.262Z,96859.36
2023-01-12T05:22:49.841Z,96862.63
2023-01-12T05:25:19.081Z,96879.24
2023-01-12T05:27:51.220Z,96890.14
2023-01-12T05:30:21.487Z,96899.97
2023-01-12T05:32:50.743Z,96889.90
2023-01-12T05:35:20.065Z,96891.27
2023-01-12T05:37:51.680Z,96886.35
2023-01-12T05:40:21.119Z,96888.56
2023-01-12T05:43:09.024Z,96887.47
2023-01-12T05:45:38.352Z,96892.64
2023-01-12T05:48:07.787Z,96896.50
2023-01-12T05:50:37.014Z,96889.96
2023-01-12T05:53:06.393Z,96893.80
2023-01-12T05:55:35.576Z,96889.42
2023-01-12T05:58:04.650Z,96904.96
2023-01-12T06:00:33.970Z,96912.03
2023-01-12T06:03:04.038Z,96918.33
2023-01-12T06:05:33.191Z,96916.13
2023-01-12T06:08:03.757Z,96921.86
2023-01-12T06:10:34.306Z,96925.14
2023-01-12T06:13:20.957Z,96925.66
2023-01-12T06:15:50.407Z,96931.11
2023-01-12T06:18:21.011Z,96945.02
2023-01-12T06:20:50.310Z,96948.55
2023-01-12T06:23:19.629Z,96952.64
2023-01-12T06:25:48.938Z,96970.61
2023-01-12T06:28:18.523Z,96985.89
2023-01-12T06:30:47.983Z,96984.23
2023-01-12T06:33:17.978Z,96998.41
2023-01-12T06:35:49.349Z,96998.95
2023-01-12T06:38:19.190Z,97006.02
2023-01-12T06:40:51.025Z,97017.21
2023-01-12T06:43:22.127Z,97034.92
2023-01-12T06:45:53.009Z,97042.28
2023-01-12T06:48:26.299Z,97054.80
2023-01-12T06:51:00.067Z,97057.27
2023-01-12T06:53:29.414Z,97071.14
2023-01-12T06:55:58.663Z,97069.23
2023-01-12T06:58:27.991Z,97076.33
2023-01-12T07:00:58.732Z,97078.21
2023-01-12T07:03:27.957Z,97084.21
2023-01-12T07:05:58.536Z,97092.12
2023-01-12T07:08:28.014Z,97102.75
2023-01-12T07:10:57.413Z,97106.27
2023-01-12T07:13:26.699Z,97115.81
2023-01-12T07:15:55.916Z,97116.88
2023-01-12T07:18:25.097Z,97123.97
2023-01-12T07:20:54.283Z,97122.86
2023-01-12T07:23:23.628Z,97123.95
2023-01-12T07:25:52.937Z,97129.14
2023-01-12T07:28:22.330Z,97143.82
2023-01-12T07:30:51.707Z,97160.97
2023-01-12T07:33:20.924Z,97167.77
2023-01-12T07:35:50.314Z,97175.43
2023-01-12T07:38:19.660Z,97183.62
2023-01-12T07:40:50.343Z,97193.42
2023-01-12T07:43:20.179Z,97194.25
2023-01-12T07:45:49.484Z,97205.71
2023-01-12T07:48:18.897Z,97213.90
2023-01-12T07:50:48.329Z,97226.17
2023-01-12T07:53:18.429Z,97227.26
2023-01-12T07:55:47.857Z,97240.66
2023-01-12T07:58:17.872Z,97248.84
2023-01-12T08:00:47.899Z,97254.31
2023-01-12T08:03:17.386Z,97269.31
2023-01-12T08:05:47.532Z,97288.41
2023-01-12T08:08:17.535Z,97309.68
2023-01-12T08:10:48.851Z,97326.05
2023-01-12T08:13:19.374Z,97314.62
2023-01-12T08:15:48.822Z,97335.89
2023-01-12T08:18:19.639Z,97346.27
2023-01-12T08:20:49.788Z,97350.65
2023-01-12T08:23:23.818Z,97361.57
2023-01-12T08:25:55.143Z,97381.48
2023-01-12T08:28:34.801Z,97383.17
2023-01-12T08:31:04.970Z,97397.64
2023-01-12T08:33:34.190Z,97415.38
2023-01-12T08:36:03.395Z,97423.58
2023-01-12T08:38:32.743Z,97436.41
2023-01-12T08:41:19.295Z,97447.34
2023-01-12T08:44:03.734Z,97447.69
2023-01-12T08:46:34.544Z,97462.70
2023-01-12T08:49:05.635Z,97478.27
2023-01-12T08:51:34.993Z,97480.20
2023-01-12T08:54:04.596Z,97473.40
2023-01-12T08:56:33.886Z,97505.06
2023-01-12T08:59:03.419Z,97514.08
2023-01-12T09:01:32.854Z,97518.49
2023-01-12T09:04:02.239Z,97525.34
2023-01-12T09:06:32.437Z,97526.44
2023-01-12T09:09:14.069Z,97542.02
2023-01-12T09:11:44.374Z,97534.66
2023-01-12T09:14:13.709Z,97545.05
2023-01-12T09:16:43.116Z,97562.56
2023-01-12T09:19:12.495Z,97566.68
2023-01-12T09:21:41.950Z,97580.34
2023-01-12T09:24:11.707Z,97585.28
2023-01-12T09:26:41.405Z,97591.57
2023-01-12T09:29:11.413Z,97598.12
2023-01-12T09:31:41.277Z,97601.16
2023-01-12T09:34:10.540Z,97615.92
2023-01-12T09:36:40.216Z,97630.95
2023-01-12T09:39:18.638Z,97623.60
2023-01-12T09:42:00.454Z,97638.94
2023-01-12T09:44:57.886Z,97639.23
2023-01-12T09:47:34.370Z,97639.98
2023-01-12T09:50:10.050Z,97649.52
2023-01-12T09:52:39.954Z,97651.41
2023-01-12T09:55:10.712Z,97655.78
2023-01-12T09:57:41.338Z,97668.31
2023-01-12T10:00:18.535Z,97683.61
2023-01-12T10:02:52.949Z,97690.68
2023-01-12T10:05:38.989Z,97691.47
2023-01-12T10:08:00.354Z,97698.84
2023-01-12T10:10:29.560Z,97710.86
2023-01-12T10:13:00.031Z,97720.66
2023-01-12T10:15:33.593Z,97725.30
2023-01-12T10:18:04.159Z,97725.84
2023-01-12T10:20:34.855Z,97732.91
2023-01-12T10:23:08.102Z,97740.02
2023-01-12T10:25:38.756Z,97748.99
2023-01-12T10:28:09.200Z,97744.87
2023-01-12T10:30:41.680Z,97750.58
2023-01-12T10:33:15.069Z,97759.86
2023-01-12T10:36:02.232Z,97760.64
2023-01-12T10:38:34.273Z,97763.10
2023-01-12T10:41:07.783Z,97767.17
2023-01-12T10:43:37.068Z,97779.69
2023-01-12T10:46:16.261Z,97775.56
2023-01-12T10:48:46.712Z,97793.03
2023-01-12T10:51:27.006Z,97806.41
2023-01-12T10:53:57.817Z,97805.01
2023-01-12T10:56:28.535Z,97806.06
2023-01-12T10:59:01.923Z,97815.07
2023-01-12T11:01:47.062Z,97813.41
2023-01-12T11:04:18.023Z,97814.19
2023-01-12T11:06:47.833Z,97826.19
2023-01-12T11:09:21.385Z,97829.70
2023-01-12T11:11:50.750Z,97828.85
2023-01-12T11:14:33.818Z,97840.86
2023-01-12T11:17:04.494Z,97845.45
2023-01-12T11:19:35.098Z,97848.16
2023-01-12T11:22:05.811Z,97863.39
2023-01-12T11:24:53.965Z,97865.84
2023-01-12T11:27:24.493Z,97872.09
2023-01-12T11:29:55.173Z,97890.29
2023-01-12T11:32:28.880Z,97906.38
2023-01-12T11:35:05.501Z,97900.34
2023-01-12T11:37:35.264Z,97912.03
2023-01-12T11:40:06.366Z,97920.18
2023-01-12T11:42:53.370Z,97924.54
2023-01-12T11:45:23.969Z,97927.22
2023-01-12T11:47:57.563Z,97947.91
2023-01-12T11:50:28.319Z,97946.78
2023-01-12T11:52:57.699Z,97957.95
2023-01-12T11:55:28.315Z,97965.55
2023-01-12T11:58:16.975Z,97962.24
2023-01-12T12:00:50.612Z,97973.95
2023-01-12T12:03:37.573Z,97983.95
2023-01-12T12:06:11.593Z,97980.96
2023-01-12T12:08:42.134Z,98000.00
2023-01-12T12:11:12.830Z,98004.87
2023-01-12T12:13:46.413Z,98003.23
2023-01-12T12:16:36.513Z,98008.91
2023-01-12T12:19:13.575Z,98009.41
2023-01-12T12:21:49.302Z,98013.77
2023-01-12T12:24:24.005Z,98019.17
2023-01-12T12:26:54.540Z,98024.85
2023-01-12T12:29:31.010Z,98016.94
2023-01-12T12:32:01.713Z,98028.61
2023-01-12T12:34:34.959Z,98049.83
2023-01-12T12:37:08.699Z,98040.01
2023-01-12T12:39:39.756Z,98049.78
2023-01-12T12:42:39.565Z,98059.27
2023-01-12T12:45:25.077Z,98061.72
2023-01-12T12:48:08.184Z,98079.92
2023-01-12T12:50:48.374Z,98080.97
2023-01-12T12:53:22.045Z,98089.64
2023-01-12T12:55:52.282Z,98096.11
2023-01-12T12:58:26.339Z,98108.66
2023-01-12T13:01:35.170Z,98117.86
2023-01-12T13:04:05.265Z,98134.98
2023-01-12T13:06:37.819Z,98136.29
2023-01-12T13:09:08.535Z,98152.08
2023-01-12T13:11:52.430Z,98165.34
2023-01-12T13:14:23.030Z,98172.92
2023-01-12T13:16:52.766Z,98170.46
2023-01-12T13:19:41.712Z,98169.05
2023-01-12T13:22:30.069Z,98176.39
2023-01-12T13:24:59.843Z,98173.30
2023-01-12T13:27:46.936Z,98185.55
2023-01-12T13:30:24.559Z,98188.22
2023-01-12T13:33:11.770Z,98204.82
2023-01-12T13:35:43.753Z,98211.57
2023-01-12T13:38:17.423Z,98228.67
2023-01-12T13:40:55.662Z,98243.91
2023-01-12T13:43:20.749Z,98247.69
2023-01-12T13:45:52.142Z,98244.39
2023-01-12T13:48:21.445Z,98253.06
2023-01-12T13:50:52.146Z,98272.07
2023-01-12T13:53:27.622Z,98283.22
2023-01-12T13:55:59.763Z,98296.23
2023-01-12T13:58:29.145Z,98295.95
2023-01-12T14:00:59.538Z,98301.08
2023-01-12T14:03:45.082Z,98306.46
2023-01-12T14:06:27.713Z,98327.13
2023-01-12T14:09:16.610Z,98338.78
2023-01-12T14:11:47.294Z,98353.48
2023-01-12T14:14:35.434Z,98365.13
2023-01-12T14:17:21.977Z,98379.20
2023-01-12T14:19:52.270Z,98389.78
2023-01-12T14:22:21.701Z,98396.30
2023-01-12T14:24:50.919Z,98408.48
2023-01-12T14:27:25.065Z,98423.99
2023-01-12T14:29:54.632Z,98420.66
2023-01-12T14:32:24.270Z,98434.52
2023-01-12T14:34:55.045Z,98438.82
2023-01-12T14:37:25.774Z,98454.33
2023-01-12T14:39:55.052Z,98459.53
2023-01-12T14:42:41.837Z,98456.05
2023-01-12T14:45:39.080Z,98467.55
2023-01-12T14:48:24.925Z,98488.34
2023-01-12T14:51:03.781Z,98499.37
2023-01-12T14:53:33.513Z,98506.63
2023-01-12T14:56:09.760Z,98505.73
2023-01-12T14:58:39.013Z,98514.27
2023-01-12T15:01:09.026Z,98498.06
2023-01-12T15:03:43.722Z,98495.09
2023-01-12T15:06:08.845Z,98509.92
2023-01-12T15:08:38.168Z,98508.92
2023-01-12T15:11:08.882Z,98525.66
2023-01-12T15:13:40.004Z,98541.22
2023-01-12T15:16:27.744Z,98553.34
2023-01-12T15:19:14.693Z,98558.36
2023-01-12T15:22:03.706Z,98570.98
2023-01-12T15:24:51.902Z,98582.92
2023-01-12T15:27:21.871Z,98601.09
2023-01-12T15:29:51.145Z,98595.18
2023-01-12T15:32:46.858Z,98605.08
2023-01-12T15:35:10.736Z,98609.02
2023-01-12T15:37:40.133Z,98599.02
2023-01-12T15:40:12.881Z,98604.83
2023-01-12T15:42:42.047Z,98595.36
2023-01-12T15:45:16.625Z,98622.98
2023-01-12T15:47:45.867Z,98638.05
2023-01-12T15:50:15.190Z,98642.49
2023-01-12T15:52:44.742Z,98655.16
2023-01-12T15:55:21.093Z,98671.59
2023-01-12T15:57:52.220Z,98673.60
2023-01-12T16:00:22.316Z,98693.91
2023-01-12T16:02:51.932Z,98697.25
2023-01-12T16:05:21.815Z,98712.32
2023-01-12T16:07:51.941Z,98718.97
2023-01-12T16:10:21.498Z,98722.30
2023-01-12T16:12:50.783Z,98731.41
2023-01-12T16:15:21.067Z,98717.30
2023-01-12T16:17:50.883Z,98727.68
2023-01-12T16:20:22.290Z,98734.75
2023-01-12T16:22:53.161Z,98738.52
2023-01-12T16:25:22.423Z,98740.97
2023-01-12T16:27:51.777Z,98753.23
2023-01-12T16:30:21.741Z,98754.82
2023-01-12T16:32:50.986Z,98764.59
2023-01-12T16:35:21.824Z,98767.85
2023-01-12T16:37:55.188Z,98768.90
2023-01-12T16:40:24.700Z,98769.44
2023-01-12T16:42:54.049Z,98764.52
2023-01-12T16:45:23.319Z,98775.14
2023-01-12T16:47:58.923Z,98779.23
2023-01-12T16:50:28.171Z,98787.63
2023-01-12T16:52:57.715Z,98793.09
2023-01-12T16:55:27.422Z,98799.62
2023-01-12T16:57:56.919Z,98797.11
2023-01-12T17:00:27.674Z,98796.28
2023-01-12T17:02:57.116Z,98796.28
2023-01-12T17:05:26.506Z,98789.38
2023-01-12T17:07:56.462Z,98788.02
2023-01-12T17:10:25.957Z,98788.02
2023-01-12T17:13:00.080Z,98787.19
2023-01-12T17:15:26.177Z,98798.64
2023-01-12T17:17:56.628Z,98796.95
2023-01-12T17:20:28.965Z,98801.05
2023-01-12T17:22:58.396Z,98800.22
2023-01-12T17:25:28.858Z,98800.44
2023-01-12T17:27:58.370Z,98801.51
2023-01-12T17:30:27.995Z,98795.44
2023-01-12T17:32:58.764Z,98793.25
2023-01-12T17:35:28.323Z,98786.89
2023-01-12T17:37:57.638Z,98793.17
2023-01-12T17:40:28.214Z,98790.38
2023-01-12T17:43:05.792Z,98792.56
2023-01-12T17:45:35.468Z,98792.81
2023-01-12T17:48:04.673Z,98799.55
2023-01-12T17:50:34.337Z,98798.72
2023-01-12T17:53:04.219Z,98791.30
2023-01-12T17:55:36.698Z,98790.14
2023-01-12T17:58:04.187Z,98786.30
2023-01-12T18:00:33.903Z,98774.24
2023-01-12T18:03:04.334Z,98770.69
2023-01-12T18:05:33.894Z,98764.12
2023-01-12T18:08:04.425Z,98765.41
2023-01-12T18:10:33.643Z,98758.27
2023-01-12T18:13:02.806Z,98745.45
2023-01-12T18:15:32.229Z,98746.31
2023-01-12T18:18:01.529Z,98745.03
2023-01-12T18:20:33.629Z,98759.78
2023-01-12T18:23:03.189Z,98762.80
2023-01-12T18:25:32.931Z,98756.59
2023-01-12T18:28:02.365Z,98751.22
2023-01-12T18:30:32.281Z,98754.02
2023-01-12T18:33:01.724Z,98757.64
2023-01-12T18:35:31.320Z,98745.98
2023-01-12T18:38:00.894Z,98744.98
2023-01-12T18:40:32.786Z,98735.22
2023-01-12T18:43:02.017Z,98731.42
2023-01-12T18:45:31.400Z,98730.88
2023-01-12T18:48:17.963Z,98729.23
2023-01-12T18:51:06.007Z,98730.59
2023-01-12T18:53:35.683Z,98728.62
2023-01-12T18:56:05.945Z,98726.42
2023-01-12T18:58:35.453Z,98720.97
2023-01-12T19:01:19.218Z,98724.77
2023-01-12T19:03:51.445Z,98732.12
2023-01-12T19:06:27.324Z,98735.08
2023-01-12T19:09:14.350Z,98721.15
2023-01-12T19:11:43.663Z,98724.16
2023-01-12T19:14:33.458Z,98730.70
2023-01-12T19:17:20.462Z,98738.27
2023-01-12T19:19:50.419Z,98746.45
2023-01-12T19:22:37.735Z,98744.72
2023-01-12T19:25:24.675Z,98753.19
2023-01-12T19:28:11.597Z,98758.64
2023-01-12T19:30:40.770Z,98768.19
2023-01-12T19:33:16.218Z,98771.13
2023-01-12T19:35:45.557Z,98771.67
2023-01-12T19:38:15.131Z,98764.02
2023-01-12T19:40:51.966Z,98758.28
2023-01-12T19:43:23.678Z,98766.14
2023-01-12T19:45:53.604Z,98749.70
2023-01-12T19:48:25.841Z,98760.93
2023-01-12T19:50:55.094Z,98758.42
2023-01-12T19:53:26.436Z,98763.58
2023-01-12T19:55:56.011Z,98757.30
2023-01-12T19:58:26.104Z,98758.87
2023-01-12T20:00:56.615Z,98755.86
2023-01-12T20:03:27.497Z,98762.36
2023-01-12T20:05:56.830Z,98766.16
2023-01-12T20:08:26.462Z,98768.56
2023-01-12T20:10:59.009Z,98758.19
2023-01-12T20:13:28.567Z,98770.99
2023-01-12T20:15:58.463Z,98761.45
2023-01-12T20:18:28.345Z,98763.97
2023-01-12T20:21:00.334Z,98764.04
2023-01-12T20:23:29.627Z,98756.77
2023-01-12T20:25:58.957Z,98769.62
2023-01-12T20:28:28.119Z,98770.23
2023-01-12T20:30:59.350Z,98762.44
2023-01-12T20:33:29.502Z,98776.66
2023-01-12T20:35:59.348Z,98768.88
2023-01-12T20:38:28.571Z,98780.98
2023-01-12T20:40:58.661Z,98777.50
2023-01-12T20:43:27.884Z,98773.77
2023-01-12T20:45:56.977Z,98776.89
2023-01-12T20:48:26.148Z,98777.80
2023-01-12T20:50:55.313Z,98770.19
2023-01-12T20:53:26.826Z,98772.41
2023-01-12T20:55:56.197Z,98773.16
2023-01-12T20:58:25.488Z,98779.16
2023-01-12T21:00:55.050Z,98785.44
2023-01-12T21:03:24.353Z,98788.38
2023-01-12T21:05:55.159Z,98788.38
2023-01-12T21:08:25.192Z,98791.11
2023-01-12T21:10:55.330Z,98791.11
2023-01-12T21:13:24.663Z,98785.66
2023-01-12T21:16:03.739Z,98791.44
2023-01-12T21:18:33.059Z,98791.44
2023-01-12T21:21:02.243Z,98794.16
2023-01-12T21:23:31.421Z,98793.09
2023-01-12T21:26:01.292Z,98798.55
2023-01-12T21:28:30.779Z,98794.45
2023-01-12T21:31:01.327Z,98800.73
2023-01-12T21:33:30.616Z,98807.55
2023-01-12T21:35:59.668Z,98806.73
2023-01-12T21:38:28.881Z,98812.19
2023-01-12T21:40:58.135Z,98813.55
2023-01-12T21:43:27.481Z,98818.72
2023-01-12T21:45:58.235Z,98811.36
2023-01-12T21:48:27.560Z,98814.08
2023-01-12T21:50:58.196Z,98817.34
2023-01-12T21:53:27.462Z,98825.53
2023-01-12T21:55:57.654Z,98829.09
2023-01-12T21:58:26.960Z,98833.72
2023-01-12T22:00:56.363Z,98824.17
2023-01-12T22:03:26.222Z,98830.45
2023-01-12T22:05:55.528Z,98843.27
2023-01-12T22:08:24.721Z,98845.13
2023-01-12T22:10:54.194Z,98853.86
2023-01-12T22:13:23.419Z,98848.72
2023-01-12T22:15:55.267Z,98853.31
2023-01-12T22:18:25.035Z,98848.40
2023-01-12T22:20:54.358Z,98857.41
2023-01-12T22:23:23.705Z,98864.55
2023-01-12T22:25:52.970Z,98865.09
2023-01-12T22:28:22.294Z,98870.23
2023-01-12T22:30:52.597Z,98868.86
2023-01-12T22:33:21.989Z,98868.57
2023-01-12T22:35:51.860Z,98875.39
2023-01-12T22:38:28.257Z,98873.48
2023-01-12T22:40:53.618Z,98864.19
2023-01-12T22:43:28.560Z,98868.86
2023-01-12T22:45:58.938Z,98868.03
2023-01-12T22:48:28.391Z,98868.57
2023-01-12T22:50:57.640Z,98872.66
2023-01-12T22:53:26.801Z,98877.58
2023-01-12T22:55:56.109Z,98877.29
2023-01-12T22:58:25.426Z,98882.50
2023-01-12T23:00:55.510Z,98880.02
2023-01-12T23:03:25.121Z,98876.46
2023-01-12T23:05:55.905Z,98879.48
2023-01-12T23:08:25.136Z,98880.55
2023-01-12T23:10:54.951Z,98880.23
2023-01-12T23:13:24.363Z,98887.59
2023-01-12T23:15:59.128Z,98890.61
2023-01-12T23:18:30.082Z,98886.22
2023-01-12T23:21:07.673Z,98897.96
2023-01-12T23:23:37.030Z,98897.83
2023-01-12T23:26:06.586Z,98899.77
2023-01-12T23:28:37.276Z,98900.71
2023-01-12T23:31:10.256Z,98902.16
2023-01-12T23:33:39.615Z,98896.27
2023-01-12T23:36:09.654Z,98899.50
2023-01-12T23:38:38.937Z,98898.92
2023-01-12T23:41:21.106Z,98895.25
2023-01-12T23:43:51.453Z,98892.20
2023-01-12T23:46:23.521Z,98897.38
2023-01-12T23:48:53.408Z,98902.00
2023-01-12T23:51:25.229Z,98903.87
2023-01-12T23:53:56.077Z,98907.12
2023-01-12T23:56:25.491Z,98905.48
2023-01-12T23:58:54.889Z,98908.20
